Aviation Digital Data Service (ADDS)

Output produced by METARs form (1103 UTC 19 January 2019)
found at http://www.aviationweather.gov/metar/data/
 
KADH 191055Z AUTO 34015G23KT 10SM -DZ OVC016 00/M02 A2990 RMK AO2
KAXS 191055Z AUTO 35019G29KT 10SM SCT033 01/M05 A3012 RMK AO2 T00071052
KAVK 191055Z AUTO 34023G30KT 10SM -UP BKN020 OVC025 M05/M07 A3014 RMK AO2
K1F0 191055Z AUTO 32012G22KT 300V360 10SM OVC018 00/M02 A2993 RMK AO2 P0002
KADM 191055Z AUTO 33017G23KT 10SM OVC020 01/M01 A2993 RMK AO2 P0001 T00051010
KAQR 191055Z AUTO 35014G20KT 1/2SM SN OVC004 00/00 A2986 RMK AO2 P0001
KBVO 191053Z AUTO 35012G22KT 10SM OVC017 M04/M07 A2998 RMK AO2 PK WND 36027/1013 SLP150 T10391067
KBVO 190815Z 1908/2006 34018G30KT P6SM OVC015 
     FM192000 35015G22KT P6SM BKN025 
     FM200000 36012KT P6SM BKN050
       
KBKN 191055Z AUTO 34027G35KT 10SM OVC018 M04/M06 A3008 RMK AO2
KCQB 191055Z AUTO 34021G35KT 10SM OVC017 M03/M05 A2998 RMK AO2 T10251054
KCHK 191055Z AUTO 34031G38KT 10SM OVC019 M02/M05 A3001 RMK AO2 T10171053
KGCM 191055Z AUTO 34011G18KT 305V005 3SM -SN OVC015 M02/M04 A2991 RMK AO2 TSNO
KCLK 191055Z AUTO OVC024 M02/M07 RMK AO2 PNO TSNO
KCSM 191053Z AUTO 34025G32KT 10SM BKN023 BKN028 M03/M07 A3009 RMK AO2 PK WND 36037/0954 SLP194 T10281072
KCSM 190527Z 1906/2006 34033G41KT 5SM -SN BLSN OVC015 
     FM190900 35030G39KT P6SM BKN025 
     FM191400 34026G32KT P6SM SCT030 BKN250 
     FM191800 35020G26KT P6SM SKC 
     FM200000 35013KT P6SM SKC 
     FM200300 36009KT P6SM SKC
       
KCUH 191055Z AUTO 35020G31KT 10SM OVC016 M02/M05 A2998 RMK AO2 T10251054
KDUC 191055Z AUTO 34022G32KT 10SM OVC020 M01/M05 A3003 RMK AO2 T10081048
KDUA 191055Z AUTO 33010G23KT 3/4SM SN BKN004 OVC007 00/M01 A2988 RMK AO2
KELK 191055Z AUTO 34026G31KT 10SM OVC022 M03/M07 A3008 RMK AO2 T10271070
KRQO 191055Z AUTO 35033G40KT 10SM OVC017 M03/M06 A3004 RMK AO2 T10291058
KWDG 191055Z AUTO 35029G35KT 10SM OVC018 M03/M05 A3006 RMK AO2
KFDR 191053Z AUTO 34021G31KT 10SM BKN030 BKN110 01/M04 A3006 RMK AO2 PK WND 33037/1001 SLP177 T00111039 $
KGAG 191053Z AUTO 35023G30KT 8SM OVC020 M04/M08 A3014 RMK AO2 PK WND 36033/1035 SLP220 T10391083 TSNO
KGMJ 191055Z AUTO 32012G22KT 10SM OVC012 M01/M02 A2985 RMK AO2
KGOK 191053Z AUTO 35016G28KT 10SM OVC017 M03/M07 A3004 RMK AO2 PK WND 34031/1042 SLP177 T10281067
KHBR 191053Z AUTO 36020G28KT 10SM BKN027 M01/M06 A3010 RMK AO2 PK WND 35039/1011 SLP194 T10111061
KHHW 191055Z AUTO 33025G30KT 10SM OVC014 04/00 A2974 RMK AO2 T00440004
K4O4 191055Z AUTO 33019G29KT 10SM OVC012 07/05 A2966 RMK AO2
KLAW 191053Z AUTO 34016G28KT 10SM OVC022 00/M04 A3005 RMK AO2 PK WND 36032/1005 SNB21E44 SLP178 P0000 T00001039
KLAW 190718Z 1907/2006 35029G38KT P6SM -SN OVC018 
     FM191000 35022G30KT P6SM OVC050 
     FM191500 35023G29KT P6SM SKC 
     FM200000 36013KT P6SM SKC 
     FM200300 36008KT P6SM SKC
       
KMLC 191100Z AUTO 35020G30KT 1 3/4SM -SN BR SCT013 OVC017 00/M02 A2984 RMK AO2 PK WND 35027/1054 P0001 T00001022
KMKO 191053Z AUTO 34023G33KT 10SM OVC016 M01/M03 A2987 RMK AO2 PK WND 34036/0957 SNE42 SLP116 P0000 T10061033
KOUN 191055Z AUTO 34028G38KT 4SM -SN BKN017 OVC024 M02/M05 A2997 RMK AO2 T10251054
KOUN 190713Z 1907/2006 34030G38KT P6SM OVC012 
     FM191200 34026G35KT P6SM OVC025 
     FM191800 34022G27KT P6SM BKN050 
     FM200000 35016KT P6SM SKC 
     FM200300 35010KT P6SM SKC
       
KRCE 191055Z AUTO 35023G35KT 10SM BKN019 M03/M05 A3002 RMK AO2
KHSD 191100Z AUTO 34023G31KT 10SM OVC019 M02/M05 A3005 RMK A01
KPWA 191053Z AUTO 34018G28KT 10SM OVC016 M02/M06 A3002 RMK AO2 PK WND 01040/1038 SNE28 SLP168 P0000 T10221056
KOKC 191052Z 35028G40KT 9SM OVC014 M03/M06 A2999 RMK AO2 PK WND 36040/1049 SNE49 SLP156 P0000 T10281061
KOKC 190712Z 1907/2006 34030G38KT P6SM OVC010 
     FM191200 34026G35KT P6SM OVC025 
     FM191800 34022G27KT P6SM BKN050 
     FM200000 35016KT P6SM SKC 
     FM200300 35010KT P6SM SKC
       
KOKM 191055Z AUTO 33015G21KT 3SM -SN BKN011 BKN017 OVC022 M01/M02 A2990 RMK AO2 T10131024
KPVJ 191055Z AUTO 34020G30KT 10SM OVC020 00/M03 A2994 RMK AO2 T10051033
KPNC 191053Z AUTO 34022G32KT 10SM BKN017 OVC024 M04/M08 A3004 RMK AO2 PK WND 36038/1017 SLP176 T10441083
KPNC 190717Z 1907/2006 35028G38KT P6SM OVC018 
     FM191000 35022G31KT P6SM OVC025 
     FM191200 35019G26KT P6SM BKN050 
     FM200000 36012KT P6SM SKC 
     FM200300 35005KT P6SM SKC
       
KRKR 191055Z AUTO 33012G21KT 7SM RA OVC013 03/02 A2975 RMK AO2 P0001
KJSV 191055Z AUTO 33017G24KT 4SM RA SCT006 OVC012 01/00 A2978 RMK AO2 LTG LTG DSNT E
KOWP 191055Z AUTO 33014G25KT 280V010 10SM OVC018 M01/M05 A2995 RMK AO2 T10101049
KSRE 191055Z AUTO 34017G29KT 10SM OVC016 M01/M05 A2993 RMK AO2
KSNL 191055Z AUTO 35026G35KT 10SM OVC017 M02/M06 A2996 RMK AO2 T10221058
KGZL 191055Z AUTO 34018G30KT 10SM -SN BKN011 OVC017 00/M02 A2982 RMK AO2 P0007
KSWO 191053Z AUTO 35020G32KT 10SM OVC019 M02/M07 A3002 RMK AO2 PK WND 36034/0957 SNE0955 SLP167 P0000 T10221072
KTQH 191055Z AUTO 34012G25KT 10SM BKN011 OVC015 M01/M02 A2982 RMK AO2
KRVS 191057Z AUTO 35011G29KT 1 3/4SM -SN BKN021 OVC029 M02/M06 A2993 RMK AO2 P0000 T10221056
KRVS 191022Z 1910/2006 35018G28KT P6SM OVC015 
     TEMPO 1910/1912 2SM -SN BR 
     FM192100 35020G30KT P6SM BKN025 
     FM200000 35010KT P6SM BKN050
       
KTUL 191053Z 33015G26KT 1 1/2SM -SN BKN017 OVC022 M02/M04 A2993 RMK AO2 PK WND 33031/1018 SLP136 P0000 T10221044
KTUL 191021Z 1910/2006 35023G35KT P6SM OVC015 
     TEMPO 1910/1912 2SM -SN BR 
     FM192100 35020G30KT P6SM BKN025 
     FM200000 35015KT P6SM BKN050
       
KOJA 191055Z AUTO 34022G32KT 10SM BKN019 OVC025 M02/M05 A3007 RMK AO2
KWWR 191055Z AUTO 34020G27KT 10SM OVC016 M04/M08 A3017 RMK AO2
KWWR 190527Z 1906/2006 34022G30KT 3SM -SN BLSN OVC010 
     FM190900 33016G23KT P6SM OVC020 
     FM191500 34016KT P6SM SKC 
     FM200000 33005KT P6SM SKC